createdAt,value
2018-03-07T00:00:20.118Z,72.50
2018-03-07T00:02:47.653Z,74.67
2018-03-07T00:05:15.221Z,69.33
2018-03-07T00:07:42.734Z,76.00
2018-03-07T00:10:10.257Z,71.37
2018-03-07T00:12:37.771Z,72.10
2018-03-07T00:15:05.284Z,68.73
2018-03-07T00:17:32.837Z,66.57
2018-03-07T00:20:00.351Z,68.30
2018-03-07T00:22:27.873Z,72.60
2018-03-07T00:24:55.380Z,70.23
2018-03-07T00:27:22.904Z,73.53
2018-03-07T00:29:50.537Z,64.50
2018-03-07T00:32:18.063Z,68.47
2018-03-07T00:34:45.564Z,69.57
2018-03-07T00:37:13.195Z,69.00
2018-03-07T00:39:40.748Z,76.63
2018-03-07T00:42:08.269Z,77.33
2018-03-07T00:44:35.806Z,75.63
2018-03-07T00:47:03.332Z,73.43
2018-03-07T00:49:30.850Z,72.47
2018-03-07T00:51:58.368Z,71.03
2018-03-07T00:54:25.882Z,71.00
2018-03-07T00:56:53.404Z,68.40
2018-03-07T00:59:21.020Z,71.00
2018-03-07T01:01:48.535Z,68.33
2018-03-07T01:04:16.037Z,72.73
2018-03-07T01:06:43.546Z,70.93
2018-03-07T01:09:11.053Z,71.47
2018-03-07T01:11:38.615Z,65.30
2018-03-07T01:14:06.116Z,73.53
2018-03-07T01:16:33.643Z,72.37
2018-03-07T01:19:01.172Z,69.17
2018-03-07T01:21:28.703Z,69.63
2018-03-07T01:23:56.221Z,72.00
2018-03-07T01:26:23.737Z,67.90
2018-03-07T01:28:51.260Z,74.00
2018-03-07T01:31:18.799Z,70.27
2018-03-07T01:33:46.317Z,69.87
2018-03-07T01:36:13.843Z,75.30
2018-03-07T01:38:41.384Z,72.60
2018-03-07T01:41:08.899Z,71.73
2018-03-07T01:43:36.424Z,74.33
2018-03-07T01:46:03.946Z,68.93
2018-03-07T01:48:31.514Z,72.00
2018-03-07T01:50:59.047Z,73.13
2018-03-07T01:53:26.558Z,74.67
2018-03-07T01:55:54.063Z,76.27
2018-03-07T01:58:21.622Z,77.07
2018-03-07T02:00:49.196Z,74.97
2018-03-07T02:03:16.705Z,71.07
2018-03-07T02:05:44.218Z,76.23
2018-03-07T02:08:11.753Z,79.20
2018-03-07T02:10:39.273Z,78.10
2018-03-07T02:13:06.834Z,83.70
2018-03-07T02:15:34.345Z,75.50
2018-03-07T02:18:01.919Z,75.37
2018-03-07T02:20:29.432Z,81.97
2018-03-07T02:22:56.946Z,78.80
2018-03-07T02:25:24.472Z,81.47
2018-03-07T02:27:51.992Z,80.73
2018-03-07T02:30:19.532Z,83.60
2018-03-07T02:32:47.108Z,85.60
2018-03-07T02:35:14.587Z,84.50
2018-03-07T02:37:42.136Z,89.17
2018-03-07T02:40:09.665Z,85.90
2018-03-07T02:42:37.205Z,90.17
2018-03-07T02:45:04.745Z,86.90
2018-03-07T02:47:32.301Z,82.70
2018-03-07T02:49:59.820Z,87.53
2018-03-07T02:52:27.452Z,83.17
2018-03-07T02:54:54.957Z,86.53
2018-03-07T02:57:22.587Z,84.90
2018-03-07T02:59:50.110Z,85.77
2018-03-07T03:02:17.630Z,82.83
2018-03-07T03:04:45.266Z,86.23
2018-03-07T03:07:12.778Z,83.80
2018-03-07T03:09:40.293Z,80.57
2018-03-07T03:12:07.813Z,83.80
2018-03-07T03:14:35.333Z,81.23
2018-03-07T03:17:02.844Z,83.43
2018-03-07T03:19:30.372Z,81.83
2018-03-07T03:21:57.905Z,90.67
2018-03-07T03:24:25.576Z,85.60
2018-03-07T03:26:53.078Z,84.90
2018-03-07T03:29:20.649Z,80.33
2018-03-07T03:31:48.171Z,87.83
2018-03-07T03:34:15.766Z,87.73
2018-03-07T03:36:43.343Z,81.67
2018-03-07T03:39:10.891Z,83.83
2018-03-07T03:41:38.435Z,84.03
2018-03-07T03:44:05.945Z,84.80
2018-03-07T03:46:33.467Z,90.37
2018-03-07T03:49:00.981Z,90.33
2018-03-07T03:51:28.489Z,93.93
2018-03-07T03:53:56.160Z,89.40
2018-03-07T03:56:23.685Z,95.60
2018-03-07T03:58:51.269Z,92.73
2018-03-07T04:01:18.791Z,94.33
2018-03-07T04:03:46.302Z,96.50
2018-03-07T04:06:13.852Z,89.57
2018-03-07T04:08:41.370Z,95.33
2018-03-07T04:11:08.983Z,87.57
2018-03-07T04:13:36.503Z,92.83
2018-03-07T04:16:04.034Z,91.93
2018-03-07T04:18:31.542Z,90.63
2018-03-07T04:20:59.109Z,88.47
2018-03-07T04:23:26.630Z,92.60
2018-03-07T04:25:54.220Z,93.63
2018-03-07T04:28:21.750Z,91.27
2018-03-07T04:30:49.265Z,87.77
2018-03-07T04:33:16.784Z,93.07
2018-03-07T04:35:44.298Z,98.33
2018-03-07T04:38:11.818Z,103.37
2018-03-07T04:40:39.404Z,94.67
2018-03-07T04:43:06.934Z,91.13
2018-03-07T04:45:34.445Z,88.60
2018-03-07T04:48:01.967Z,95.53
2018-03-07T04:50:29.479Z,86.23
2018-03-07T04:52:57.088Z,93.80
2018-03-07T04:55:24.602Z,92.43
2018-03-07T04:57:52.197Z,92.07
2018-03-07T05:00:19.705Z,86.87
2018-03-07T05:02:47.367Z,98.57
2018-03-07T05:05:14.884Z,101.77
2018-03-07T05:07:42.397Z,86.37
2018-03-07T05:10:09.934Z,86.30
2018-03-07T05:12:37.452Z,95.53
2018-03-07T05:15:04.964Z,86.30
2018-03-07T05:17:32.482Z,93.70
2018-03-07T05:19:59.993Z,83.33
2018-03-07T05:22:27.510Z,82.30
2018-03-07T05:24:55.025Z,88.60
2018-03-07T05:27:22.541Z,81.47
2018-03-07T05:29:50.049Z,86.33
2018-03-07T05:32:17.565Z,83.23
2018-03-07T05:34:45.084Z,92.60
2018-03-07T05:37:12.596Z,91.63
2018-03-07T05:39:40.111Z,85.67
2018-03-07T05:42:07.620Z,86.57
2018-03-07T05:44:35.174Z,88.50
2018-03-07T05:47:02.678Z,92.57
2018-03-07T05:49:30.194Z,87.50
2018-03-07T05:51:57.705Z,84.47
2018-03-07T05:54:25.227Z,79.67
2018-03-07T05:56:52.749Z,85.03
2018-03-07T05:59:20.266Z,84.33
2018-03-07T06:01:47.780Z,89.47
2018-03-07T06:04:15.305Z,89.47
2018-03-07T06:06:42.821Z,83.23
2018-03-07T06:09:10.324Z,90.63
2018-03-07T06:11:37.858Z,91.33
2018-03-07T06:14:05.359Z,86.23
2018-03-07T06:16:32.870Z,82.10
2018-03-07T06:19:00.394Z,84.53
2018-03-07T06:21:27.915Z,89.63
2018-03-07T06:23:55.439Z,86.80
2018-03-07T06:26:22.958Z,85.67
2018-03-07T06:28:50.470Z,88.90
2018-03-07T06:31:18.002Z,90.17
2018-03-07T06:33:45.530Z,90.00
2018-03-07T06:36:13.041Z,93.57
2018-03-07T06:38:40.562Z,86.53
2018-03-07T06:41:08.095Z,95.13
2018-03-07T06:43:35.616Z,91.47
2018-03-07T06:46:03.124Z,85.93
2018-03-07T06:48:30.645Z,85.97
2018-03-07T06:50:58.156Z,86.20
2018-03-07T06:53:25.794Z,89.83
2018-03-07T06:55:53.308Z,90.73
2018-03-07T06:58:20.837Z,85.30
2018-03-07T07:00:48.369Z,100.00
2018-03-07T07:03:15.905Z,90.90
2018-03-07T07:05:43.417Z,85.80
2018-03-07T07:08:10.933Z,87.07
2018-03-07T07:10:38.447Z,87.93
2018-03-07T07:13:05.958Z,92.57
2018-03-07T07:15:33.471Z,91.93
2018-03-07T07:18:00.989Z,86.37
2018-03-07T07:20:28.506Z,86.90
2018-03-07T07:22:56.029Z,81.53
2018-03-07T07:25:23.541Z,96.27
2018-03-07T07:27:51.066Z,88.73
2018-03-07T07:30:18.590Z,85.00
2018-03-07T07:32:46.101Z,83.17
2018-03-07T07:35:13.619Z,82.60
2018-03-07T07:37:41.130Z,80.97
2018-03-07T07:40:08.645Z,85.33
2018-03-07T07:42:36.171Z,81.33
2018-03-07T07:45:03.681Z,82.13
2018-03-07T07:47:31.200Z,82.97
2018-03-07T07:49:58.717Z,75.80
2018-03-07T07:52:26.233Z,77.70
2018-03-07T07:54:53.756Z,79.57
2018-03-07T07:57:21.314Z,75.90
2018-03-07T07:59:48.826Z,73.57
2018-03-07T08:02:16.388Z,74.40
2018-03-07T08:04:43.905Z,75.67
2018-03-07T08:07:11.494Z,66.93
2018-03-07T08:09:39.058Z,68.17
2018-03-07T08:12:06.572Z,71.43
2018-03-07T08:14:34.090Z,64.87
2018-03-07T08:17:01.602Z,67.53
2018-03-07T08:19:29.139Z,66.17
2018-03-07T08:21:56.723Z,64.33
2018-03-07T08:24:24.249Z,67.50
2018-03-07T08:26:51.774Z,67.60
2018-03-07T08:29:19.296Z,69.03
2018-03-07T08:31:46.813Z,70.90
2018-03-07T08:34:14.338Z,66.37
2018-03-07T08:36:41.853Z,72.47
2018-03-07T08:39:09.389Z,73.70
2018-03-07T08:41:36.916Z,63.03
2018-03-07T08:44:04.482Z,67.57
2018-03-07T08:46:32.001Z,65.33
2018-03-07T08:48:59.524Z,71.10
2018-03-07T08:51:27.072Z,69.90
2018-03-07T08:53:54.587Z,65.57
2018-03-07T08:56:22.105Z,66.30
2018-03-07T08:58:49.624Z,68.30
2018-03-07T09:01:17.141Z,66.37
2018-03-07T09:03:44.658Z,64.10
2018-03-07T09:06:12.178Z,65.17
2018-03-07T09:08:39.702Z,62.77
2018-03-07T09:11:07.225Z,61.63
2018-03-07T09:13:34.767Z,60.27
2018-03-07T09:16:02.281Z,61.03
2018-03-07T09:18:29.815Z,60.63
2018-03-07T09:20:57.329Z,60.73
2018-03-07T09:23:24.858Z,58.07
2018-03-07T09:25:52.386Z,56.80
2018-03-07T09:28:19.902Z,50.97
2018-03-07T09:30:47.418Z,51.60
2018-03-07T09:33:14.933Z,57.10
2018-03-07T09:35:42.470Z,50.47
2018-03-07T09:38:09.991Z,47.77
2018-03-07T09:40:37.506Z,45.60
2018-03-07T09:43:05.022Z,47.63
2018-03-07T09:45:32.548Z,46.60
2018-03-07T09:48:00.082Z,49.87
2018-03-07T09:50:27.589Z,46.50
2018-03-07T09:52:55.102Z,43.67
2018-03-07T09:55:22.629Z,43.97
2018-03-07T09:57:50.149Z,44.70
2018-03-07T10:00:17.666Z,43.60
2018-03-07T10:02:45.182Z,37.73
2018-03-07T10:05:12.710Z,41.93
2018-03-07T10:07:40.235Z,42.63
2018-03-07T10:10:07.761Z,42.57
2018-03-07T10:12:35.295Z,39.40
2018-03-07T10:15:02.812Z,38.50
2018-03-07T10:17:30.332Z,41.20
2018-03-07T10:19:57.850Z,39.60
2018-03-07T10:22:25.363Z,39.90
2018-03-07T10:24:52.884Z,36.60
2018-03-07T10:27:20.408Z,38.13
2018-03-07T10:29:47.933Z,38.70
2018-03-07T10:32:15.454Z,40.43
2018-03-07T10:34:42.973Z,39.40
2018-03-07T10:37:10.492Z,36.90
2018-03-07T10:39:38.022Z,37.57
2018-03-07T10:42:05.536Z,35.40
2018-03-07T10:44:33.060Z,36.10
2018-03-07T10:47:00.578Z,35.13
2018-03-07T10:49:28.097Z,34.93
2018-03-07T10:51:55.637Z,36.07
2018-03-07T10:54:23.159Z,34.70
2018-03-07T10:56:50.675Z,35.67
2018-03-07T10:59:18.194Z,37.73
2018-03-07T11:01:45.726Z,41.17
2018-03-07T11:04:13.237Z,36.93
2018-03-07T11:06:40.747Z,35.37
2018-03-07T11:09:08.310Z,35.17
2018-03-07T11:11:35.826Z,36.40
2018-03-07T11:14:03.341Z,35.77
2018-03-07T11:16:30.859Z,38.83
2018-03-07T11:18:58.369Z,33.77
2018-03-07T11:21:25.881Z,38.53
2018-03-07T11:23:53.394Z,37.90
2018-03-07T11:26:20.916Z,37.33
2018-03-07T11:28:48.460Z,42.50
2018-03-07T11:31:15.982Z,37.27
2018-03-07T11:33:43.502Z,36.23
2018-03-07T11:36:11.026Z,35.57
2018-03-07T11:38:38.555Z,35.50
2018-03-07T11:41:06.086Z,33.47
2018-03-07T11:43:33.647Z,37.30
2018-03-07T11:46:01.163Z,36.80
2018-03-07T11:48:28.680Z,36.70
2018-03-07T11:50:56.193Z,36.07
2018-03-07T11:53:23.711Z,36.07
2018-03-07T11:55:51.275Z,40.53
2018-03-07T11:58:18.789Z,37.00
2018-03-07T12:00:46.328Z,39.03
2018-03-07T12:03:13.851Z,40.73
2018-03-07T12:05:41.374Z,36.67
2018-03-07T12:08:08.890Z,39.53
2018-03-07T12:10:36.405Z,37.70
2018-03-07T12:13:03.920Z,38.30
2018-03-07T12:15:31.441Z,39.73
2018-03-07T12:17:58.960Z,39.00
2018-03-07T12:20:26.477Z,40.87
2018-03-07T12:22:53.994Z,39.73
2018-03-07T12:25:21.514Z,45.70
2018-03-07T12:27:49.038Z,43.03
2018-03-07T12:30:16.555Z,44.00
2018-03-07T12:32:44.094Z,45.70
2018-03-07T12:35:11.620Z,45.43
2018-03-07T12:37:39.134Z,46.10
2018-03-07T12:40:06.655Z,46.97
2018-03-07T12:42:34.174Z,52.10
2018-03-07T12:45:01.682Z,51.10
2018-03-07T12:47:29.212Z,54.67
2018-03-07T12:49:56.774Z,56.33
2018-03-07T12:52:24.286Z,55.53
2018-03-07T12:54:51.811Z,57.57
2018-03-07T12:57:19.320Z,63.77
2018-03-07T12:59:46.834Z,61.33
2018-03-07T13:02:14.350Z,60.07
2018-03-07T13:04:41.861Z,64.40
2018-03-07T13:07:09.369Z,61.57
2018-03-07T13:09:36.885Z,67.27
2018-03-07T13:12:04.397Z,66.50
2018-03-07T13:14:31.908Z,68.13
2018-03-07T13:16:59.485Z,69.83
2018-03-07T13:19:27.002Z,66.97
2018-03-07T13:21:54.509Z,70.70
2018-03-07T13:24:22.022Z,68.97
2018-03-07T13:26:49.545Z,74.40
2018-03-07T13:29:17.070Z,73.23
2018-03-07T13:31:44.585Z,73.30
2018-03-07T13:34:12.106Z,76.87
2018-03-07T13:36:39.618Z,70.60
2018-03-07T13:39:07.133Z,71.97
2018-03-07T13:41:34.670Z,79.63
2018-03-07T13:44:02.186Z,73.27
2018-03-07T13:46:29.697Z,71.90
2018-03-07T13:48:57.220Z,73.17
2018-03-07T13:51:24.736Z,73.63
2018-03-07T13:53:52.257Z,71.33
2018-03-07T13:56:19.882Z,73.73
2018-03-07T13:58:47.329Z,73.37
2018-03-07T14:01:14.846Z,75.80
2018-03-07T14:03:42.367Z,74.20
2018-03-07T14:06:09.897Z,74.23
2018-03-07T14:08:37.421Z,73.93
2018-03-07T14:11:04.949Z,75.37
2018-03-07T14:13:32.466Z,75.90
2018-03-07T14:15:59.999Z,75.97
2018-03-07T14:18:27.508Z,75.73
2018-03-07T14:20:55.028Z,75.17
2018-03-07T14:23:22.574Z,78.00
2018-03-07T14:25:50.134Z,76.80
2018-03-07T14:28:17.649Z,82.07
2018-03-07T14:30:45.163Z,81.30
2018-03-07T14:33:12.681Z,76.97
2018-03-07T14:35:40.185Z,79.23
2018-03-07T14:38:07.693Z,77.07
2018-03-07T14:40:35.342Z,76.07
2018-03-07T14:43:02.868Z,79.30
2018-03-07T14:45:30.376Z,81.23
2018-03-07T14:47:57.942Z,76.80
2018-03-07T14:50:25.420Z,72.53
2018-03-07T14:52:52.941Z,78.07
2018-03-07T14:55:20.474Z,82.10
2018-03-07T14:57:47.989Z,83.27
2018-03-07T15:00:15.532Z,73.60
2018-03-07T15:02:43.048Z,83.53
2018-03-07T15:05:10.561Z,79.43
2018-03-07T15:07:38.067Z,80.10
2018-03-07T15:10:05.583Z,78.97
2018-03-07T15:12:33.098Z,78.87
2018-03-07T15:15:00.613Z,84.07
2018-03-07T15:17:28.121Z,78.47
2018-03-07T15:19:55.636Z,80.90
2018-03-07T15:22:23.153Z,75.63
2018-03-07T15:24:50.665Z,76.60
2018-03-07T15:27:18.191Z,78.40
2018-03-07T15:29:45.718Z,78.87
2018-03-07T15:32:13.244Z,75.43
2018-03-07T15:34:40.755Z,73.07
2018-03-07T15:37:08.274Z,77.17
2018-03-07T15:39:35.790Z,82.20
2018-03-07T15:42:03.315Z,80.10
2018-03-07T15:44:30.830Z,72.20
2018-03-07T15:46:58.353Z,81.23
2018-03-07T15:49:25.875Z,79.43
2018-03-07T15:51:53.386Z,79.60
2018-03-07T15:54:20.905Z,82.33
2018-03-07T15:56:48.432Z,78.80
2018-03-07T15:59:15.948Z,83.53
2018-03-07T16:01:43.514Z,80.97
2018-03-07T16:04:11.046Z,78.87
2018-03-07T16:06:38.579Z,87.13
2018-03-07T16:09:06.088Z,77.67
2018-03-07T16:11:33.602Z,78.93
2018-03-07T16:14:01.156Z,73.37
2018-03-07T16:16:28.676Z,75.40
2018-03-07T16:18:56.230Z,74.40
2018-03-07T16:21:23.770Z,76.97
2018-03-07T16:23:51.301Z,75.27
2018-03-07T16:26:18.818Z,75.73
2018-03-07T16:28:46.340Z,78.00
2018-03-07T16:31:13.849Z,81.50
2018-03-07T16:33:41.362Z,78.20
2018-03-07T16:36:08.864Z,82.63
2018-03-07T16:38:36.386Z,83.23
2018-03-07T16:41:03.902Z,74.47
2018-03-07T16:43:31.423Z,85.63
2018-03-07T16:45:58.948Z,78.77
2018-03-07T16:48:26.482Z,84.70
2018-03-07T16:50:53.993Z,81.10
2018-03-07T16:53:21.494Z,86.87
2018-03-07T16:55:49.004Z,83.70
2018-03-07T16:58:16.514Z,78.23
2018-03-07T17:00:44.029Z,85.53
2018-03-07T17:03:11.547Z,82.67
2018-03-07T17:05:39.061Z,81.67
2018-03-07T17:08:06.574Z,86.53
2018-03-07T17:10:34.096Z,88.00
2018-03-07T17:13:01.610Z,89.70
2018-03-07T17:15:29.125Z,94.97
2018-03-07T17:17:56.648Z,89.93
2018-03-07T17:20:24.158Z,91.93
2018-03-07T17:22:51.674Z,99.93
2018-03-07T17:25:19.191Z,102.13
2018-03-07T17:27:46.741Z,104.17
2018-03-07T17:30:14.265Z,93.57
2018-03-07T17:32:41.804Z,104.57
2018-03-07T17:35:09.325Z,107.63
2018-03-07T17:37:36.841Z,103.20
2018-03-07T17:40:04.433Z,102.83
2018-03-07T17:42:31.977Z,100.97
2018-03-07T17:44:59.493Z,100.33
2018-03-07T17:47:27.029Z,100.03
2018-03-07T17:49:54.616Z,94.60
2018-03-07T17:52:22.082Z,99.20
2018-03-07T17:54:49.591Z,84.47
2018-03-07T17:57:17.102Z,87.80
2018-03-07T17:59:44.612Z,92.30
2018-03-07T18:02:12.115Z,92.97
2018-03-07T18:04:39.641Z,87.60
2018-03-07T18:07:07.165Z,90.07
2018-03-07T18:09:34.684Z,88.73
2018-03-07T18:12:02.204Z,83.00
2018-03-07T18:14:29.708Z,86.97
2018-03-07T18:16:57.239Z,88.67
2018-03-07T18:19:24.754Z,93.07
2018-03-07T18:21:52.279Z,91.07
2018-03-07T18:24:19.811Z,94.20
2018-03-07T18:26:47.335Z,92.47
2018-03-07T18:29:14.866Z,85.37
2018-03-07T18:31:42.392Z,95.77
2018-03-07T18:34:09.913Z,91.13
2018-03-07T18:36:37.432Z,92.43
2018-03-07T18:39:04.965Z,85.03
2018-03-07T18:41:32.526Z,86.67
2018-03-07T18:44:00.047Z,85.80
2018-03-07T18:46:27.571Z,89.50
2018-03-07T18:48:55.092Z,87.30
2018-03-07T18:51:22.608Z,84.60
2018-03-07T18:53:50.127Z,80.17
2018-03-07T18:56:17.637Z,82.33
2018-03-07T18:58:45.171Z,86.10
2018-03-07T19:01:12.697Z,82.57
2018-03-07T19:03:40.220Z,89.60
2018-03-07T19:06:08.553Z,82.53
2018-03-07T19:08:36.073Z,83.60
2018-03-07T19:11:03.591Z,87.07
2018-03-07T19:13:31.101Z,90.07
2018-03-07T19:15:58.628Z,87.03
2018-03-07T19:18:26.166Z,86.90
2018-03-07T19:20:53.692Z,87.57
2018-03-07T19:23:21.207Z,96.53
2018-03-07T19:25:48.717Z,88.53
2018-03-07T19:28:16.238Z,88.20
2018-03-07T19:30:43.782Z,93.23
2018-03-07T19:33:11.337Z,90.90
2018-03-07T19:35:38.844Z,92.00
2018-03-07T19:38:06.421Z,95.17
2018-03-07T19:40:33.936Z,103.43
2018-03-07T19:43:01.455Z,96.20
2018-03-07T19:45:28.974Z,94.87
2018-03-07T19:47:56.476Z,97.67
2018-03-07T19:50:24.000Z,96.00
2018-03-07T19:52:51.540Z,101.63
2018-03-07T19:55:19.056Z,103.43
2018-03-07T19:57:46.583Z,102.97
2018-03-07T20:00:14.098Z,98.77
2018-03-07T20:02:41.626Z,102.60
2018-03-07T20:05:09.159Z,101.87
2018-03-07T20:07:36.685Z,99.17
2018-03-07T20:10:04.202Z,96.67
2018-03-07T20:12:31.722Z,99.73
2018-03-07T20:14:59.297Z,100.77
2018-03-07T20:17:26.820Z,98.90
2018-03-07T20:19:54.348Z,102.40
2018-03-07T20:22:21.870Z,108.40
2018-03-07T20:24:49.394Z,103.30
2018-03-07T20:27:16.925Z,95.07
2018-03-07T20:29:44.452Z,100.93
2018-03-07T20:32:12.001Z,97.00
2018-03-07T20:34:39.510Z,97.67
2018-03-07T20:37:07.030Z,100.70
2018-03-07T20:39:34.549Z,96.40
2018-03-07T20:42:02.062Z,97.00
2018-03-07T20:44:29.577Z,100.50
2018-03-07T20:46:57.097Z,94.13
2018-03-07T20:49:24.623Z,99.23
2018-03-07T20:51:52.142Z,98.57
2018-03-07T20:54:19.658Z,102.83
2018-03-07T20:56:47.173Z,99.40
2018-03-07T20:59:14.698Z,102.97
2018-03-07T21:01:42.209Z,95.70
2018-03-07T21:04:09.736Z,104.17
2018-03-07T21:06:37.254Z,104.47
2018-03-07T21:09:04.769Z,104.03
2018-03-07T21:11:32.286Z,107.60
2018-03-07T21:13:59.829Z,102.37
2018-03-07T21:16:27.344Z,98.97
2018-03-07T21:18:54.882Z,110.00
2018-03-07T21:21:22.402Z,105.30
2018-03-07T21:23:49.926Z,105.20
2018-03-07T21:26:17.457Z,102.17
2018-03-07T21:28:44.972Z,104.00
2018-03-07T21:31:12.493Z,104.20
2018-03-07T21:33:40.014Z,100.83
2018-03-07T21:36:07.538Z,109.07
2018-03-07T21:38:35.055Z,102.93
2018-03-07T21:41:02.585Z,103.27
2018-03-07T21:43:30.110Z,107.83
2018-03-07T21:45:57.620Z,109.13
2018-03-07T21:48:25.132Z,102.43
2018-03-07T21:50:52.659Z,107.90
2018-03-07T21:53:20.198Z,107.50
2018-03-07T21:55:47.740Z,102.67
2018-03-07T21:58:15.267Z,114.73
2018-03-07T22:00:42.806Z,115.47
2018-03-07T22:03:10.326Z,115.43
2018-03-07T22:05:37.857Z,112.27
2018-03-07T22:08:05.414Z,118.17
2018-03-07T22:10:32.922Z,116.10
2018-03-07T22:13:00.438Z,117.47
2018-03-07T22:15:27.969Z,117.03
2018-03-07T22:17:55.485Z,117.00
2018-03-07T22:20:23.011Z,117.33
2018-03-07T22:22:50.526Z,120.63
2018-03-07T22:25:18.049Z,118.23
2018-03-07T22:27:45.570Z,121.40
2018-03-07T22:30:13.155Z,116.87
2018-03-07T22:32:40.684Z,123.57
2018-03-07T22:35:08.195Z,122.40
2018-03-07T22:37:35.739Z,125.97
2018-03-07T22:40:03.264Z,118.87
2018-03-07T22:42:30.780Z,123.47
2018-03-07T22:44:58.303Z,125.63
2018-03-07T22:47:25.835Z,127.23
2018-03-07T22:49:53.355Z,134.98
2018-03-07T22:52:20.869Z,133.47
2018-03-07T22:54:48.387Z,127.83
2018-03-07T22:57:15.902Z,127.17
2018-03-07T22:59:43.421Z,128.30
2018-03-07T23:02:10.941Z,133.47
2018-03-07T23:04:38.467Z,136.57
2018-03-07T23:07:06.013Z,132.83
2018-03-07T23:09:33.565Z,129.07
2018-03-07T23:12:01.113Z,135.83
2018-03-07T23:14:28.677Z,129.50
2018-03-07T23:16:56.202Z,129.93
2018-03-07T23:19:23.723Z,140.93
2018-03-07T23:21:51.242Z,136.53
2018-03-07T23:24:18.763Z,129.87
2018-03-07T23:26:46.303Z,146.03
2018-03-07T23:29:13.834Z,133.87
2018-03-07T23:31:41.356Z,143.50
2018-03-07T23:34:08.878Z,142.67
2018-03-07T23:36:36.390Z,138.97
2018-03-07T23:39:03.953Z,143.53
2018-03-07T23:41:31.467Z,148.00
2018-03-07T23:43:59.016Z,141.10
2018-03-07T23:46:26.549Z,128.93
2018-03-07T23:48:54.069Z,148.00
2018-03-07T23:51:21.577Z,138.93
2018-03-07T23:53:49.093Z,136.80
2018-03-07T23:56:16.609Z,142.60
2018-03-07T23:58:44.130Z,136.20
